Helliar — 2EPP5 — position and weather

sailwx.info

Track history (hours):
 
Tides and Currents Weather Stations Pressure Air Temp Water Temp Dewpoint Dewpoint Depression Visibility Wind Speed Wind Dir Waves Ship Positions

Helliar

Last reported at 2016-Feb-10 00:17 UTC. Time now 2016-Feb-10 22:06 UTC.
Position N 59°00' W 002°58'.

Length 122 m; draft 5.5 m.

Type: Cargo ship. MMSI: 235087119.

Date/timePositionNaut miles runAvg speedWind from/ knotsBaromVisibWave heightAir tempDewpointWater temp
2016-Feb-10 00:17N 59°00' W 002°58'1210.8
2016-Feb-09 23:09N 58°55' W 002°37'7212.9
2016-Feb-09 17:33N 57°47' W 001°51'1615.8
2016-Feb-09 16:33N 57°32' W 001°43'2612.6
2016-Feb-09 14:29N 57°09' W 002°05'0 0.0
2016-Feb-09 13:20N 57°09' W 002°05'0 0.0
2016-Feb-09 12:17N 57°09' W 002°05'0 0.0
2016-Feb-09 11:32N 57°09' W 002°05'0 0.0
2016-Feb-09 10:17N 57°09' W 002°05'0 0.0
2016-Feb-09 09:32N 57°09' W 002°05'0 0.0
2016-Feb-09 08:29N 57°09' W 002°05'3 3.3
2016-Feb-09 07:33N 57°10' W 002°00'1313.0
2016-Feb-09 06:31N 57°22' W 001°47'1212.2
2016-Feb-09 05:34N 57°33' W 001°42'1313.0
2016-Feb-09 04:34N 57°46' W 001°38'  
2016-Feb-04 20:33N 57°48' W 001°38'1413.9
2016-Feb-04 19:33N 57°34' W 001°42'2813.9
2016-Feb-04 17:33N 57°09' W 002°03'1 1.0
2016-Feb-04 16:32N 57°09' W 002°05'0 0.0
2016-Feb-04 15:33N 57°09' W 002°05'0 0.0
2016-Feb-04 14:33N 57°09' W 002°05'0 0.0
2016-Feb-04 13:33N 57°09' W 002°05'0 0.0
2016-Feb-04 12:32N 57°09' W 002°05'0 0.0
2016-Feb-04 11:32N 57°09' W 002°05'0 0.0
2016-Feb-04 10:33N 57°09' W 002°05'0 0.0
2016-Feb-04 09:33N 57°09' W 002°05'0 0.0
2016-Feb-04 08:32N 57°09' W 002°05'1 0.8
2016-Feb-04 07:32N 57°09' W 002°04'2412.1
2016-Feb-04 05:33N 57°30' W 001°42'1414.2
2016-Feb-04 04:33N 57°44' W 001°39'9 0.3
2016-Feb-02 20:20N 57°50' W 001°52'911.8
2016-Feb-02 19:33N 57°41' W 001°46'1312.6
2016-Feb-02 18:33N 57°29' W 001°43'2013.8
2016-Feb-02 17:07N 57°11' W 001°60'4 5.8
2016-Feb-02 16:29N 57°09' W 002°05'0 0.0
2016-Feb-02 15:32N 57°09' W 002°05'0 0.0
2016-Feb-02 14:32N 57°09' W 002°05'0 0.0
2016-Feb-02 13:29N 57°09' W 002°05'0 0.0
2016-Feb-02 12:23N 57°09' W 002°05'0 0.0
2016-Feb-02 11:32N 57°09' W 002°05'0 0.0
2016-Feb-02 10:29N 57°09' W 002°05'0 0.0
2016-Feb-02 09:32N 57°09' W 002°05'0 0.4
2016-Feb-02 08:33N 57°08' W 002°05'19 9.7
2016-Feb-02 06:33N 57°25' W 001°45'7 7.1
2016-Feb-02 05:33N 57°32' W 001°43'1110.8
2016-Feb-02 04:33N 57°42' W 001°47'1111.4
2016-Feb-02 03:33N 57°47' W 002°07'49 6.7
2016-Feb-01 20:10N 58°28' W 002°58'812.4
2016-Feb-01 19:33N 58°35' W 002°52'1212.4
2016-Feb-01 18:33N 58°47' W 002°44'1510.5
2016-Feb-01 17:06N 59°01' W 002°55'2 0.1
2016-Jan-31 23:33N 59°01' W 002°58'  
Track history (hours):
 
Tides and Currents Weather Stations Pressure Air Temp Water Temp Dewpoint Dewpoint Depression Visibility Wind Speed Wind Dir Waves Ship Positions

Helliar

Last reported at 2016-Feb-10 00:17 UTC. Time now 2016-Feb-10 22:06 UTC.
Position N 59°00' W 002°58'.

Length 122 m; draft 5.5 m.

Type: Cargo ship. MMSI: 235087119.

Date/timePositionNaut miles runAvg speedWind from/ knotsBaromVisibWave heightAir tempDewpointWater temp
2016-Feb-10 00:17N 59°00' W 002°58'1210.8
2016-Feb-09 23:09N 58°55' W 002°37'7212.9
2016-Feb-09 17:33N 57°47' W 001°51'1615.8
2016-Feb-09 16:33N 57°32' W 001°43'2612.6
2016-Feb-09 14:29N 57°09' W 002°05'0 0.0
2016-Feb-09 13:20N 57°09' W 002°05'0 0.0
2016-Feb-09 12:17N 57°09' W 002°05'0 0.0
2016-Feb-09 11:32N 57°09' W 002°05'0 0.0
2016-Feb-09 10:17N 57°09' W 002°05'0 0.0
2016-Feb-09 09:32N 57°09' W 002°05'0 0.0
2016-Feb-09 08:29N 57°09' W 002°05'3 3.3
2016-Feb-09 07:33N 57°10' W 002°00'1313.0
2016-Feb-09 06:31N 57°22' W 001°47'1212.2
2016-Feb-09 05:34N 57°33' W 001°42'1313.0
2016-Feb-09 04:34N 57°46' W 001°38'  
2016-Feb-04 20:33N 57°48' W 001°38'1413.9
2016-Feb-04 19:33N 57°34' W 001°42'2813.9
2016-Feb-04 17:33N 57°09' W 002°03'1 1.0
2016-Feb-04 16:32N 57°09' W 002°05'0 0.0
2016-Feb-04 15:33N 57°09' W 002°05'0 0.0
2016-Feb-04 14:33N 57°09' W 002°05'0 0.0
2016-Feb-04 13:33N 57°09' W 002°05'0 0.0
2016-Feb-04 12:32N 57°09' W 002°05'0 0.0
2016-Feb-04 11:32N 57°09' W 002°05'0 0.0
2016-Feb-04 10:33N 57°09' W 002°05'0 0.0
2016-Feb-04 09:33N 57°09' W 002°05'0 0.0
2016-Feb-04 08:32N 57°09' W 002°05'1 0.8
2016-Feb-04 07:32N 57°09' W 002°04'2412.1
2016-Feb-04 05:33N 57°30' W 001°42'1414.2
2016-Feb-04 04:33N 57°44' W 001°39'9 0.3
2016-Feb-02 20:20N 57°50' W 001°52'911.8
2016-Feb-02 19:33N 57°41' W 001°46'1312.6
2016-Feb-02 18:33N 57°29' W 001°43'2013.8
2016-Feb-02 17:07N 57°11' W 001°60'4 5.8
2016-Feb-02 16:29N 57°09' W 002°05'0 0.0
2016-Feb-02 15:32N 57°09' W 002°05'0 0.0
2016-Feb-02 14:32N 57°09' W 002°05'0 0.0
2016-Feb-02 13:29N 57°09' W 002°05'0 0.0
2016-Feb-02 12:23N 57°09' W 002°05'0 0.0
2016-Feb-02 11:32N 57°09' W 002°05'0 0.0
2016-Feb-02 10:29N 57°09' W 002°05'0 0.0
2016-Feb-02 09:32N 57°09' W 002°05'0 0.4
2016-Feb-02 08:33N 57°08' W 002°05'19 9.7
2016-Feb-02 06:33N 57°25' W 001°45'7 7.1
2016-Feb-02 05:33N 57°32' W 001°43'1110.8
2016-Feb-02 04:33N 57°42' W 001°47'1111.4
2016-Feb-02 03:33N 57°47' W 002°07'49 6.7
2016-Feb-01 20:10N 58°28' W 002°58'812.4
2016-Feb-01 19:33N 58°35' W 002°52'1212.4
2016-Feb-01 18:33N 58°47' W 002°44'1510.5
2016-Feb-01 17:06N 59°01' W 002°55'2 0.1
2016-Jan-31 23:33N 59°01' W 002°58'  

Dump ship's entire track history